sensor_id;sensor_type;location;lat;lon;timestamp;temperature;humidity
1704;DHT22;849;48.780;9.216;2022-08-19T00:01:50;24.60;96.70
1704;DHT22;849;48.780;9.216;2022-08-19T00:04:18;24.70;96.60
1704;DHT22;849;48.780;9.216;2022-08-19T00:06:46;24.40;96.60
1704;DHT22;849;48.780;9.216;2022-08-19T00:09:14;24.20;97.10
1704;DHT22;849;48.780;9.216;2022-08-19T00:11:41;24.30;97.30
1704;DHT22;849;48.780;9.216;2022-08-19T00:14:09;24.40;97.00
1704;DHT22;849;48.780;9.216;2022-08-19T00:16:37;24.50;97.10
1704;DHT22;849;48.780;9.216;2022-08-19T00:19:05;24.20;97.00
1704;DHT22;849;48.780;9.216;2022-08-19T00:21:31;24.40;97.30
1704;DHT22;849;48.780;9.216;2022-08-19T00:23:57;24.30;97.20
1704;DHT22;849;48.780;9.216;2022-08-19T00:26:27;24.40;97.40
1704;DHT22;849;48.780;9.216;2022-08-19T00:28:53;24.30;97.20
1704;DHT22;849;48.780;9.216;2022-08-19T00:31:22;24.40;97.50
1704;DHT22;849;48.780;9.216;2022-08-19T00:33:48;24.40;97.20
1704;DHT22;849;48.780;9.216;2022-08-19T00:36:16;24.00;98.10
1704;DHT22;849;48.780;9.216;2022-08-19T00:38:42;24.10;98.20
1704;DHT22;849;48.780;9.216;2022-08-19T00:41:11;24.00;98.20
1704;DHT22;849;48.780;9.216;2022-08-19T00:43:37;24.10;98.70
1704;DHT22;849;48.780;9.216;2022-08-19T00:46:04;24.00;98.50
1704;DHT22;849;48.780;9.216;2022-08-19T00:48:31;24.10;98.50
1704;DHT22;849;48.780;9.216;2022-08-19T00:50:57;24.30;98.10
1704;DHT22;849;48.780;9.216;2022-08-19T00:53:26;24.10;98.20
1704;DHT22;849;48.780;9.216;2022-08-19T00:55:54;24.20;98.60
1704;DHT22;849;48.780;9.216;2022-08-19T00:58:23;24.20;98.20
1704;DHT22;849;48.780;9.216;2022-08-19T01:00:49;24.10;98.40
1704;DHT22;849;48.780;9.216;2022-08-19T01:03:18;24.10;98.50
1704;DHT22;849;48.780;9.216;2022-08-19T01:05:45;24.00;98.50
1704;DHT22;849;48.780;9.216;2022-08-19T01:08:15;24.00;98.80
1704;DHT22;849;48.780;9.216;2022-08-19T01:10:54;23.70;99.20
1704;DHT22;849;48.780;9.216;2022-08-19T01:13:24;23.40;99.90
1704;DHT22;849;48.780;9.216;2022-08-19T01:15:59;23.80;99.90
1704;DHT22;849;48.780;9.216;2022-08-19T01:18:26;23.80;99.70
1704;DHT22;849;48.780;9.216;2022-08-19T01:20:54;23.90;99.70
1704;DHT22;849;48.780;9.216;2022-08-19T01:23:21;24.00;99.40
1704;DHT22;849;48.780;9.216;2022-08-19T01:26:08;24.10;99.10
1704;DHT22;849;48.780;9.216;2022-08-19T01:28:36;24.00;99.30
1704;DHT22;849;48.780;9.216;2022-08-19T01:31:02;24.00;99.30
1704;DHT22;849;48.780;9.216;2022-08-19T01:33:27;23.80;99.60
1704;DHT22;849;48.780;9.216;2022-08-19T01:36:25;23.90;99.50
1704;DHT22;849;48.780;9.216;2022-08-19T01:38:48;23.80;99.60
1704;DHT22;849;48.780;9.216;2022-08-19T01:41:17;24.00;99.60
1704;DHT22;849;48.780;9.216;2022-08-19T01:43:44;23.80;99.40
1704;DHT22;849;48.780;9.216;2022-08-19T01:46:10;23.40;99.90
1704;DHT22;849;48.780;9.216;2022-08-19T01:48:39;23.50;99.90
1704;DHT22;849;48.780;9.216;2022-08-19T01:51:06;23.50;99.90
1704;DHT22;849;48.780;9.216;2022-08-19T01:53:32;23.50;99.90
1704;DHT22;849;48.780;9.216;2022-08-19T01:55:58;23.30;99.90
1704;DHT22;849;48.780;9.216;2022-08-19T01:58:30;23.40;99.90
1704;DHT22;849;48.780;9.216;2022-08-19T02:00:58;23.40;99.90
1704;DHT22;849;48.780;9.216;2022-08-19T02:03:23;23.60;99.90
1704;DHT22;849;48.780;9.216;2022-08-19T02:05:55;23.30;99.90
1704;DHT22;849;48.780;9.216;2022-08-19T02:08:21;23.60;99.90
1704;DHT22;849;48.780;9.216;2022-08-19T02:10:47;23.70;99.90
1704;DHT22;849;48.780;9.216;2022-08-19T02:13:13;23.90;99.90
1704;DHT22;849;48.780;9.216;2022-08-19T02:15:39;23.90;99.90
1704;DHT22;849;48.780;9.216;2022-08-19T02:18:05;23.90;99.90
1704;DHT22;849;48.780;9.216;2022-08-19T02:20:31;23.70;99.90
1704;DHT22;849;48.780;9.216;2022-08-19T02:22:57;23.50;99.90
1704;DHT22;849;48.780;9.216;2022-08-19T02:25:22;23.60;99.90
1704;DHT22;849;48.780;9.216;2022-08-19T02:27:48;23.70;99.90
1704;DHT22;849;48.780;9.216;2022-08-19T02:30:16;23.60;99.90
1704;DHT22;849;48.780;9.216;2022-08-19T02:32:42;23.10;99.90
1704;DHT22;849;48.780;9.216;2022-08-19T02:35:08;23.20;99.90
1704;DHT22;849;48.780;9.216;2022-08-19T02:37:34;23.20;99.90
1704;DHT22;849;48.780;9.216;2022-08-19T02:40:19;23.00;99.90
1704;DHT22;849;48.780;9.216;2022-08-19T02:42:45;23.20;99.90
1704;DHT22;849;48.780;9.216;2022-08-19T02:45:12;23.60;99.90
1704;DHT22;849;48.780;9.216;2022-08-19T02:47:38;23.60;99.90
1704;DHT22;849;48.780;9.216;2022-08-19T02:50:05;23.70;99.90
1704;DHT22;849;48.780;9.216;2022-08-19T02:52:33;23.70;99.90
1704;DHT22;849;48.780;9.216;2022-08-19T02:54:59;23.70;99.90
1704;DHT22;849;48.780;9.216;2022-08-19T02:57:25;23.20;99.90
1704;DHT22;849;48.780;9.216;2022-08-19T02:59:52;23.30;99.90
1704;DHT22;849;48.780;9.216;2022-08-19T03:02:17;23.30;99.90
1704;DHT22;849;48.780;9.216;2022-08-19T03:04:44;23.10;99.90
1704;DHT22;849;48.780;9.216;2022-08-19T03:07:13;22.60;99.90
1704;DHT22;849;48.780;9.216;2022-08-19T03:09:39;22.50;99.90
1704;DHT22;849;48.780;9.216;2022-08-19T03:12:06;22.60;99.90
1704;DHT22;849;48.780;9.216;2022-08-19T03:14:33;22.60;99.90
1704;DHT22;849;48.780;9.216;2022-08-19T03:16:59;22.60;99.90
1704;DHT22;849;48.780;9.216;2022-08-19T03:19:25;22.80;99.90
1704;DHT22;849;48.780;9.216;2022-08-19T03:21:52;22.90;99.90
1704;DHT22;849;48.780;9.216;2022-08-19T03:24:18;22.70;99.90
1704;DHT22;849;48.780;9.216;2022-08-19T03:26:49;22.60;99.90
1704;DHT22;849;48.780;9.216;2022-08-19T03:29:18;22.60;99.90
1704;DHT22;849;48.780;9.216;2022-08-19T03:31:44;22.80;99.90
1704;DHT22;849;48.780;9.216;2022-08-19T03:34:16;22.90;99.90
1704;DHT22;849;48.780;9.216;2022-08-19T03:36:43;22.80;99.90
1704;DHT22;849;48.780;9.216;2022-08-19T03:39:10;22.80;99.90
1704;DHT22;849;48.780;9.216;2022-08-19T03:41:40;23.00;99.90
1704;DHT22;849;48.780;9.216;2022-08-19T03:44:06;22.90;99.90
1704;DHT22;849;48.780;9.216;2022-08-19T03:46:34;22.90;99.90
1704;DHT22;849;48.780;9.216;2022-08-19T03:49:02;22.60;99.90
1704;DHT22;849;48.780;9.216;2022-08-19T03:51:36;22.60;99.90
1704;DHT22;849;48.780;9.216;2022-08-19T03:54:04;22.70;99.90
1704;DHT22;849;48.780;9.216;2022-08-19T03:56:33;22.60;99.90
1704;DHT22;849;48.780;9.216;2022-08-19T03:58:59;22.80;99.90
1704;DHT22;849;48.780;9.216;2022-08-19T04:01:28;22.80;99.90
1704;DHT22;849;48.780;9.216;2022-08-19T04:03:56;22.80;99.90
1704;DHT22;849;48.780;9.216;2022-08-19T04:06:24;22.60;99.90
1704;DHT22;849;48.780;9.216;2022-08-19T04:08:53;22.80;99.90
1704;DHT22;849;48.780;9.216;2022-08-19T04:11:24;22.80;99.90
1704;DHT22;849;48.780;9.216;2022-08-19T04:13:52;22.80;99.90
1704;DHT22;849;48.780;9.216;2022-08-19T04:16:20;22.90;99.90
1704;DHT22;849;48.780;9.216;2022-08-19T04:18:46;22.80;99.90
1704;DHT22;849;48.780;9.216;2022-08-19T04:21:18;22.60;99.90
1704;DHT22;849;48.780;9.216;2022-08-19T04:23:44;22.50;99.90
1704;DHT22;849;48.780;9.216;2022-08-19T04:26:15;22.20;99.90
1704;DHT22;849;48.780;9.216;2022-08-19T04:28:42;22.20;99.90
1704;DHT22;849;48.780;9.216;2022-08-19T04:31:17;22.00;99.90
1704;DHT22;849;48.780;9.216;2022-08-19T04:33:43;22.20;99.90
1704;DHT22;849;48.780;9.216;2022-08-19T04:36:20;22.30;99.90
1704;DHT22;849;48.780;9.216;2022-08-19T04:38:53;22.30;99.90
1704;DHT22;849;48.780;9.216;2022-08-19T04:41:20;21.90;99.90
1704;DHT22;849;48.780;9.216;2022-08-19T04:44:04;22.00;99.90
1704;DHT22;849;48.780;9.216;2022-08-19T04:46:31;22.00;99.90
1704;DHT22;849;48.780;9.216;2022-08-19T04:48:58;22.10;99.90
1704;DHT22;849;48.780;9.216;2022-08-19T04:51:24;22.40;99.90
1704;DHT22;849;48.780;9.216;2022-08-19T04:53:50;22.40;99.90
1704;DHT22;849;48.780;9.216;2022-08-19T04:56:17;22.70;99.90
1704;DHT22;849;48.780;9.216;2022-08-19T04:58:45;22.50;99.90
1704;DHT22;849;48.780;9.216;2022-08-19T05:01:26;22.40;99.90
1704;DHT22;849;48.780;9.216;2022-08-19T05:03:54;22.70;99.90
1704;DHT22;849;48.780;9.216;2022-08-19T05:06:21;22.60;99.90
1704;DHT22;849;48.780;9.216;2022-08-19T05:08:47;22.80;99.90
1704;DHT22;849;48.780;9.216;2022-08-19T05:11:17;23.00;99.90
1704;DHT22;849;48.780;9.216;2022-08-19T05:13:44;22.50;99.90
1704;DHT22;849;48.780;9.216;2022-08-19T05:16:12;22.40;99.90
1704;DHT22;849;48.780;9.216;2022-08-19T05:18:39;22.00;99.90
1704;DHT22;849;48.780;9.216;2022-08-19T05:21:23;21.80;99.90
1704;DHT22;849;48.780;9.216;2022-08-19T05:24:17;21.90;99.90
1704;DHT22;849;48.780;9.216;2022-08-19T05:26:47;21.90;99.90
1704;DHT22;849;48.780;9.216;2022-08-19T05:29:16;22.20;99.90
1704;DHT22;849;48.780;9.216;2022-08-19T05:31:42;22.40;99.90
1704;DHT22;849;48.780;9.216;2022-08-19T05:34:08;22.10;99.90
1704;DHT22;849;48.780;9.216;2022-08-19T05:36:43;22.00;99.90
1704;DHT22;849;48.780;9.216;2022-08-19T05:39:12;21.50;99.90
1704;DHT22;849;48.780;9.216;2022-08-19T05:41:51;21.50;99.90
1704;DHT22;849;48.780;9.216;2022-08-19T05:44:19;21.70;99.90
1704;DHT22;849;48.780;9.216;2022-08-19T05:46:47;21.90;99.90
1704;DHT22;849;48.780;9.216;2022-08-19T05:49:14;22.10;99.90
1704;DHT22;849;48.780;9.216;2022-08-19T05:51:40;21.90;99.90
1704;DHT22;849;48.780;9.216;2022-08-19T05:54:06;22.20;99.90
1704;DHT22;849;48.780;9.216;2022-08-19T05:56:34;22.30;99.90
1704;DHT22;849;48.780;9.216;2022-08-19T05:59:08;22.60;99.90
1704;DHT22;849;48.780;9.216;2022-08-19T06:01:36;22.70;99.90
1704;DHT22;849;48.780;9.216;2022-08-19T06:04:03;22.90;99.90
1704;DHT22;849;48.780;9.216;2022-08-19T06:06:29;22.90;99.90
1704;DHT22;849;48.780;9.216;2022-08-19T06:08:54;22.70;99.90
1704;DHT22;849;48.780;9.216;2022-08-19T06:11:22;22.50;99.90
1704;DHT22;849;48.780;9.216;2022-08-19T06:13:51;22.70;99.90
1704;DHT22;849;48.780;9.216;2022-08-19T06:16:19;22.50;99.90
1704;DHT22;849;48.780;9.216;2022-08-19T06:18:50;22.40;99.90
1704;DHT22;849;48.780;9.216;2022-08-19T06:21:19;22.30;99.90
1704;DHT22;849;48.780;9.216;2022-08-19T06:23:45;22.00;99.90
1704;DHT22;849;48.780;9.216;2022-08-19T06:26:14;22.00;99.90
1704;DHT22;849;48.780;9.216;2022-08-19T06:28:40;22.20;99.90
1704;DHT22;849;48.780;9.216;2022-08-19T06:31:29;22.30;99.90
1704;DHT22;849;48.780;9.216;2022-08-19T06:33:56;22.60;99.90
1704;DHT22;849;48.780;9.216;2022-08-19T06:36:28;22.30;99.90
1704;DHT22;849;48.780;9.216;2022-08-19T06:38:58;22.20;99.90
1704;DHT22;849;48.780;9.216;2022-08-19T06:41:27;22.40;99.90
1704;DHT22;849;48.780;9.216;2022-08-19T06:43:53;22.60;99.90
1704;DHT22;849;48.780;9.216;2022-08-19T06:46:19;22.60;99.90
1704;DHT22;849;48.780;9.216;2022-08-19T06:48:46;22.20;99.90
1704;DHT22;849;48.780;9.216;2022-08-19T06:51:17;21.90;99.90
1704;DHT22;849;48.780;9.216;2022-08-19T06:53:50;22.00;99.90
1704;DHT22;849;48.780;9.216;2022-08-19T06:56:18;22.30;99.90
1704;DHT22;849;48.780;9.216;2022-08-19T06:58:46;22.40;99.90
1704;DHT22;849;48.780;9.216;2022-08-19T07:01:13;22.60;99.90
1704;DHT22;849;48.780;9.216;2022-08-19T07:03:39;22.80;99.90
1704;DHT22;849;48.780;9.216;2022-08-19T07:06:07;22.60;99.90
1704;DHT22;849;48.780;9.216;2022-08-19T07:08:33;22.30;99.90
1704;DHT22;849;48.780;9.216;2022-08-19T07:11:05;21.70;99.90
1704;DHT22;849;48.780;9.216;2022-08-19T07:13:33;21.60;99.90
1704;DHT22;849;48.780;9.216;2022-08-19T07:16:10;21.90;99.90
1704;DHT22;849;48.780;9.216;2022-08-19T07:18:37;22.00;99.90
1704;DHT22;849;48.780;9.216;2022-08-19T07:21:08;22.00;99.90
1704;DHT22;849;48.780;9.216;2022-08-19T07:23:34;22.10;99.90
1704;DHT22;849;48.780;9.216;2022-08-19T07:26:24;22.00;99.90
1704;DHT22;849;48.780;9.216;2022-08-19T07:28:51;22.10;99.90
1704;DHT22;849;48.780;9.216;2022-08-19T07:31:20;22.20;99.90
1704;DHT22;849;48.780;9.216;2022-08-19T07:33:48;22.10;99.90
1704;DHT22;849;48.780;9.216;2022-08-19T07:36:18;22.10;99.90
1704;DHT22;849;48.780;9.216;2022-08-19T07:38:46;22.10;99.90
1704;DHT22;849;48.780;9.216;2022-08-19T07:41:18;22.10;99.90
1704;DHT22;849;48.780;9.216;2022-08-19T07:43:45;22.30;99.90
1704;DHT22;849;48.780;9.216;2022-08-19T07:46:11;22.00;99.90
1704;DHT22;849;48.780;9.216;2022-08-19T07:48:40;22.00;99.90
1704;DHT22;849;48.780;9.216;2022-08-19T07:51:09;22.20;99.90
1704;DHT22;849;48.780;9.216;2022-08-19T07:53:36;22.20;99.90
1704;DHT22;849;48.780;9.216;2022-08-19T07:56:03;22.30;99.90
1704;DHT22;849;48.780;9.216;2022-08-19T07:58:38;22.20;99.90
1704;DHT22;849;48.780;9.216;2022-08-19T08:01:06;22.10;99.90
1704;DHT22;849;48.780;9.216;2022-08-19T08:03:33;22.00;99.90
1704;DHT22;849;48.780;9.216;2022-08-19T08:06:17;22.20;99.90
1704;DHT22;849;48.780;9.216;2022-08-19T08:09:04;22.20;99.90
1704;DHT22;849;48.780;9.216;2022-08-19T08:11:37;22.00;99.90
1704;DHT22;849;48.780;9.216;2022-08-19T08:14:03;22.10;99.90
1704;DHT22;849;48.780;9.216;2022-08-19T08:16:33;22.40;99.90
1704;DHT22;849;48.780;9.216;2022-08-19T08:18:59;22.70;99.90
1704;DHT22;849;48.780;9.216;2022-08-19T08:21:25;22.90;99.90
1704;DHT22;849;48.780;9.216;2022-08-19T08:23:51;22.60;99.90
1704;DHT22;849;48.780;9.216;2022-08-19T08:26:20;22.00;99.90
1704;DHT22;849;48.780;9.216;2022-08-19T08:28:46;22.10;99.90
1704;DHT22;849;48.780;9.216;2022-08-19T08:31:13;21.90;99.90
1704;DHT22;849;48.780;9.216;2022-08-19T08:33:40;22.00;99.90
1704;DHT22;849;48.780;9.216;2022-08-19T08:36:07;22.30;99.90
1704;DHT22;849;48.780;9.216;2022-08-19T08:38:34;22.40;99.90
1704;DHT22;849;48.780;9.216;2022-08-19T08:41:06;22.40;99.90
1704;DHT22;849;48.780;9.216;2022-08-19T08:43:39;22.60;99.90
1704;DHT22;849;48.780;9.216;2022-08-19T08:46:21;22.80;99.90
1704;DHT22;849;48.780;9.216;2022-08-19T08:49:39;22.90;99.90
1704;DHT22;849;48.780;9.216;2022-08-19T08:51:45;22.90;99.90
1704;DHT22;849;48.780;9.216;2022-08-19T08:54:19;22.60;99.90
1704;DHT22;849;48.780;9.216;2022-08-19T08:56:45;22.30;99.90
1704;DHT22;849;48.780;9.216;2022-08-19T08:59:24;21.90;99.90
1704;DHT22;849;48.780;9.216;2022-08-19T09:01:52;22.10;99.90
1704;DHT22;849;48.780;9.216;2022-08-19T09:04:18;22.50;99.90
1704;DHT22;849;48.780;9.216;2022-08-19T09:09:42;22.80;99.90
1704;DHT22;849;48.780;9.216;2022-08-19T09:12:21;23.00;99.90
1704;DHT22;849;48.780;9.216;2022-08-19T09:14:55;23.10;99.90
1704;DHT22;849;48.780;9.216;2022-08-19T09:17:26;23.20;99.90
1704;DHT22;849;48.780;9.216;2022-08-19T09:20:05;23.10;99.90
1704;DHT22;849;48.780;9.216;2022-08-19T09:22:39;22.70;99.90
1704;DHT22;849;48.780;9.216;2022-08-19T09:25:07;23.00;99.90
1704;DHT22;849;48.780;9.216;2022-08-19T09:27:35;22.80;99.90
1704;DHT22;849;48.780;9.216;2022-08-19T09:30:04;22.80;99.90
1704;DHT22;849;48.780;9.216;2022-08-19T09:32:30;22.80;99.90
1704;DHT22;849;48.780;9.216;2022-08-19T09:34:56;23.00;99.90
1704;DHT22;849;48.780;9.216;2022-08-19T09:37:24;23.10;99.90
1704;DHT22;849;48.780;9.216;2022-08-19T09:39:50;23.20;99.90
1704;DHT22;849;48.780;9.216;2022-08-19T09:42:16;23.20;99.90
1704;DHT22;849;48.780;9.216;2022-08-19T09:44:43;23.40;99.90
1704;DHT22;849;48.780;9.216;2022-08-19T09:47:10;23.10;99.90
1704;DHT22;849;48.780;9.216;2022-08-19T09:49:36;23.20;99.90
1704;DHT22;849;48.780;9.216;2022-08-19T09:52:03;23.20;99.90
1704;DHT22;849;48.780;9.216;2022-08-19T09:54:29;23.20;99.90
1704;DHT22;849;48.780;9.216;2022-08-19T09:56:55;23.40;99.90
1704;DHT22;849;48.780;9.216;2022-08-19T09:59:23;23.50;99.90
1704;DHT22;849;48.780;9.216;2022-08-19T10:01:49;23.60;99.90
1704;DHT22;849;48.780;9.216;2022-08-19T10:04:16;23.70;99.90
1704;DHT22;849;48.780;9.216;2022-08-19T10:06:41;23.60;99.90
1704;DHT22;849;48.780;9.216;2022-08-19T10:09:09;23.40;99.90
1704;DHT22;849;48.780;9.216;2022-08-19T10:11:36;23.30;99.90
1704;DHT22;849;48.780;9.216;2022-08-19T10:14:04;23.20;99.90
1704;DHT22;849;48.780;9.216;2022-08-19T10:16:33;23.10;99.90
1704;DHT22;849;48.780;9.216;2022-08-19T10:19:01;23.10;99.90
1704;DHT22;849;48.780;9.216;2022-08-19T10:21:31;23.00;99.90
1704;DHT22;849;48.780;9.216;2022-08-19T10:23:59;23.00;99.90
1704;DHT22;849;48.780;9.216;2022-08-19T10:26:31;23.20;99.90
1704;DHT22;849;48.780;9.216;2022-08-19T10:28:57;23.20;99.90
1704;DHT22;849;48.780;9.216;2022-08-19T10:31:26;23.30;99.90
1704;DHT22;849;48.780;9.216;2022-08-19T10:33:52;23.20;99.90
1704;DHT22;849;48.780;9.216;2022-08-19T10:36:32;23.30;99.90
1704;DHT22;849;48.780;9.216;2022-08-19T10:39:00;23.40;99.90
1704;DHT22;849;48.780;9.216;2022-08-19T10:41:36;23.40;99.90
1704;DHT22;849;48.780;9.216;2022-08-19T10:44:06;23.40;99.90
1704;DHT22;849;48.780;9.216;2022-08-19T10:46:35;23.30;99.90
1704;DHT22;849;48.780;9.216;2022-08-19T10:49:02;23.10;99.90
1704;DHT22;849;48.780;9.216;2022-08-19T10:51:29;23.00;99.90
1704;DHT22;849;48.780;9.216;2022-08-19T10:54:13;23.10;99.90
1704;DHT22;849;48.780;9.216;2022-08-19T10:56:39;23.50;99.90
1704;DHT22;849;48.780;9.216;2022-08-19T10:59:26;23.70;99.90
1704;DHT22;849;48.780;9.216;2022-08-19T11:02:07;23.80;99.90
1704;DHT22;849;48.780;9.216;2022-08-19T11:04:35;23.20;99.90
1704;DHT22;849;48.780;9.216;2022-08-19T11:07:01;23.30;99.90
1704;DHT22;849;48.780;9.216;2022-08-19T11:09:27;23.10;99.90
1704;DHT22;849;48.780;9.216;2022-08-19T11:11:53;23.20;99.90
1704;DHT22;849;48.780;9.216;2022-08-19T11:14:20;23.40;99.90
1704;DHT22;849;48.780;9.216;2022-08-19T11:16:50;23.60;99.90
1704;DHT22;849;48.780;9.216;2022-08-19T11:19:17;23.50;99.90
1704;DHT22;849;48.780;9.216;2022-08-19T11:21:47;23.60;99.90
1704;DHT22;849;48.780;9.216;2022-08-19T11:24:18;23.60;99.90
1704;DHT22;849;48.780;9.216;2022-08-19T11:26:46;23.70;99.90
1704;DHT22;849;48.780;9.216;2022-08-19T11:29:13;23.80;99.90
1704;DHT22;849;48.780;9.216;2022-08-19T11:31:43;23.70;99.90
1704;DHT22;849;48.780;9.216;2022-08-19T11:34:11;23.80;99.90
1704;DHT22;849;48.780;9.216;2022-08-19T11:36:40;23.70;99.90
1704;DHT22;849;48.780;9.216;2022-08-19T11:39:09;23.60;99.90
1704;DHT22;849;48.780;9.216;2022-08-19T11:41:35;23.80;99.90
1704;DHT22;849;48.780;9.216;2022-08-19T11:44:01;23.80;99.90
1704;DHT22;849;48.780;9.216;2022-08-19T11:46:28;23.90;99.90
1704;DHT22;849;48.780;9.216;2022-08-19T11:48:59;24.10;99.90
1704;DHT22;849;48.780;9.216;2022-08-19T11:51:26;24.20;99.90
1704;DHT22;849;48.780;9.216;2022-08-19T11:53:57;24.40;99.90
1704;DHT22;849;48.780;9.216;2022-08-19T11:56:25;24.20;99.90
1704;DHT22;849;48.780;9.216;2022-08-19T11:58:51;24.00;99.90
1704;DHT22;849;48.780;9.216;2022-08-19T12:01:20;24.10;99.90
1704;DHT22;849;48.780;9.216;2022-08-19T12:03:48;24.00;99.90
1704;DHT22;849;48.780;9.216;2022-08-19T12:06:17;24.10;99.90
1704;DHT22;849;48.780;9.216;2022-08-19T12:08:44;24.10;99.90
1704;DHT22;849;48.780;9.216;2022-08-19T12:11:11;24.20;99.90
1704;DHT22;849;48.780;9.216;2022-08-19T12:13:38;24.30;99.90
1704;DHT22;849;48.780;9.216;2022-08-19T12:16:08;24.30;99.90
1704;DHT22;849;48.780;9.216;2022-08-19T12:18:36;24.20;99.90
1704;DHT22;849;48.780;9.216;2022-08-19T12:21:03;24.30;99.90
1704;DHT22;849;48.780;9.216;2022-08-19T12:23:29;24.30;99.90
1704;DHT22;849;48.780;9.216;2022-08-19T12:25:55;24.10;99.90
1704;DHT22;849;48.780;9.216;2022-08-19T12:28:24;24.10;99.90
1704;DHT22;849;48.780;9.216;2022-08-19T12:30:50;24.20;99.90
1704;DHT22;849;48.780;9.216;2022-08-19T12:33:18;24.00;99.90
1704;DHT22;849;48.780;9.216;2022-08-19T12:35:46;24.00;99.90
1704;DHT22;849;48.780;9.216;2022-08-19T12:38:13;24.10;99.90
1704;DHT22;849;48.780;9.216;2022-08-19T12:40:40;24.10;99.90
1704;DHT22;849;48.780;9.216;2022-08-19T12:43:07;24.00;99.90
1704;DHT22;849;48.780;9.216;2022-08-19T12:45:33;23.90;99.90
1704;DHT22;849;48.780;9.216;2022-08-19T12:47:59;24.10;99.90
1704;DHT22;849;48.780;9.216;2022-08-19T12:50:25;24.10;99.90
1704;DHT22;849;48.780;9.216;2022-08-19T12:52:50;24.20;99.90
1704;DHT22;849;48.780;9.216;2022-08-19T12:55:17;24.20;99.90
1704;DHT22;849;48.780;9.216;2022-08-19T12:57:44;24.10;99.90
1704;DHT22;849;48.780;9.216;2022-08-19T13:00:12;24.10;99.90
1704;DHT22;849;48.780;9.216;2022-08-19T13:02:40;24.10;99.90
1704;DHT22;849;48.780;9.216;2022-08-19T13:05:08;24.20;99.90
1704;DHT22;849;48.780;9.216;2022-08-19T13:07:34;24.40;99.90
1704;DHT22;849;48.780;9.216;2022-08-19T13:10:00;24.40;99.90
1704;DHT22;849;48.780;9.216;2022-08-19T13:12:26;24.40;99.90
1704;DHT22;849;48.780;9.216;2022-08-19T13:14:55;24.40;99.90
1704;DHT22;849;48.780;9.216;2022-08-19T13:17:21;24.20;99.90
1704;DHT22;849;48.780;9.216;2022-08-19T13:19:48;24.00;99.90
1704;DHT22;849;48.780;9.216;2022-08-19T13:22:15;24.00;99.90
1704;DHT22;849;48.780;9.216;2022-08-19T13:24:41;23.90;99.90
1704;DHT22;849;48.780;9.216;2022-08-19T13:27:07;24.00;99.90
1704;DHT22;849;48.780;9.216;2022-08-19T13:29:32;23.80;99.90
1704;DHT22;849;48.780;9.216;2022-08-19T13:32:16;23.80;99.90
1704;DHT22;849;48.780;9.216;2022-08-19T13:35:02;23.60;99.90
1704;DHT22;849;48.780;9.216;2022-08-19T13:37:28;23.70;99.90
1704;DHT22;849;48.780;9.216;2022-08-19T13:40:20;23.80;99.90
1704;DHT22;849;48.780;9.216;2022-08-19T13:42:49;23.80;99.90
1704;DHT22;849;48.780;9.216;2022-08-19T13:45:18;23.90;99.90
1704;DHT22;849;48.780;9.216;2022-08-19T13:47:46;23.70;99.90
1704;DHT22;849;48.780;9.216;2022-08-19T13:50:15;23.40;99.90
1704;DHT22;849;48.780;9.216;2022-08-19T13:52:41;23.00;99.90
1704;DHT22;849;48.780;9.216;2022-08-19T13:55:10;23.00;99.90
1704;DHT22;849;48.780;9.216;2022-08-19T13:57:36;23.20;99.90
1704;DHT22;849;48.780;9.216;2022-08-19T14:00:09;23.40;99.90
1704;DHT22;849;48.780;9.216;2022-08-19T14:02:39;23.20;99.90
1704;DHT22;849;48.780;9.216;2022-08-19T14:05:10;23.20;99.90
1704;DHT22;849;48.780;9.216;2022-08-19T14:07:36;23.20;99.90
1704;DHT22;849;48.780;9.216;2022-08-19T14:10:04;23.40;99.90
1704;DHT22;849;48.780;9.216;2022-08-19T14:12:30;23.30;99.90
1704;DHT22;849;48.780;9.216;2022-08-19T14:14:58;23.30;99.90
1704;DHT22;849;48.780;9.216;2022-08-19T14:17:23;23.30;99.90
1704;DHT22;849;48.780;9.216;2022-08-19T14:19:56;23.20;99.90
1704;DHT22;849;48.780;9.216;2022-08-19T14:22:21;23.30;99.90
1704;DHT22;849;48.780;9.216;2022-08-19T14:24:47;23.20;99.90
1704;DHT22;849;48.780;9.216;2022-08-19T14:27:13;23.30;99.90
1704;DHT22;849;48.780;9.216;2022-08-19T14:29:40;23.20;99.90
1704;DHT22;849;48.780;9.216;2022-08-19T14:32:05;23.30;99.90
1704;DHT22;849;48.780;9.216;2022-08-19T14:34:31;23.30;99.90
1704;DHT22;849;48.780;9.216;2022-08-19T14:36:59;23.40;99.90
1704;DHT22;849;48.780;9.216;2022-08-19T14:39:25;23.40;99.90
1704;DHT22;849;48.780;9.216;2022-08-19T14:41:50;23.50;99.90
1704;DHT22;849;48.780;9.216;2022-08-19T14:44:16;23.60;99.90
1704;DHT22;849;48.780;9.216;2022-08-19T14:46:42;23.70;99.90
1704;DHT22;849;48.780;9.216;2022-08-19T14:49:09;23.70;99.90
1704;DHT22;849;48.780;9.216;2022-08-19T14:51:34;23.80;99.90
1704;DHT22;849;48.780;9.216;2022-08-19T14:54:00;23.90;99.90
1704;DHT22;849;48.780;9.216;2022-08-19T14:56:27;23.90;99.90
1704;DHT22;849;48.780;9.216;2022-08-19T14:58:54;23.90;99.90
1704;DHT22;849;48.780;9.216;2022-08-19T15:01:21;23.80;99.90
1704;DHT22;849;48.780;9.216;2022-08-19T15:03:48;23.80;99.90
1704;DHT22;849;48.780;9.216;2022-08-19T15:06:14;23.90;99.90
1704;DHT22;849;48.780;9.216;2022-08-19T15:08:41;24.10;99.90
1704;DHT22;849;48.780;9.216;2022-08-19T15:11:15;24.20;99.90
1704;DHT22;849;48.780;9.216;2022-08-19T15:13:43;24.30;99.90
1704;DHT22;849;48.780;9.216;2022-08-19T15:16:10;24.30;99.90
1704;DHT22;849;48.780;9.216;2022-08-19T15:18:36;24.40;99.90
1704;DHT22;849;48.780;9.216;2022-08-19T15:21:03;24.60;99.90
1704;DHT22;849;48.780;9.216;2022-08-19T15:23:29;24.80;99.90
1704;DHT22;849;48.780;9.216;2022-08-19T15:25:55;24.70;99.90
1704;DHT22;849;48.780;9.216;2022-08-19T15:28:22;24.60;99.90
1704;DHT22;849;48.780;9.216;2022-08-19T15:30:48;24.30;99.90
1704;DHT22;849;48.780;9.216;2022-08-19T15:33:16;24.40;99.90
1704;DHT22;849;48.780;9.216;2022-08-19T15:35:46;24.20;99.90
1704;DHT22;849;48.780;9.216;2022-08-19T15:38:13;24.30;99.90
1704;DHT22;849;48.780;9.216;2022-08-19T15:40:41;24.40;99.90
1704;DHT22;849;48.780;9.216;2022-08-19T15:43:07;24.80;99.90
1704;DHT22;849;48.780;9.216;2022-08-19T15:45:32;25.10;99.90
1704;DHT22;849;48.780;9.216;2022-08-19T15:48:00;25.30;99.90
1704;DHT22;849;48.780;9.216;2022-08-19T15:50:26;25.40;99.90
1704;DHT22;849;48.780;9.216;2022-08-19T15:52:53;25.40;99.90
1704;DHT22;849;48.780;9.216;2022-08-19T15:55:22;25.60;99.90
1704;DHT22;849;48.780;9.216;2022-08-19T15:57:48;25.70;99.90
1704;DHT22;849;48.780;9.216;2022-08-19T16:00:32;25.80;99.90
1704;DHT22;849;48.780;9.216;2022-08-19T16:03:18;25.90;99.90
1704;DHT22;849;48.780;9.216;2022-08-19T16:06:02;25.90;99.90
1704;DHT22;849;48.780;9.216;2022-08-19T16:08:46;26.10;99.90
1704;DHT22;849;48.780;9.216;2022-08-19T16:11:16;26.00;99.90
1704;DHT22;849;48.780;9.216;2022-08-19T16:13:44;25.30;99.90
1704;DHT22;849;48.780;9.216;2022-08-19T16:16:10;25.20;99.90
1704;DHT22;849;48.780;9.216;2022-08-19T16:18:35;25.00;99.90
1704;DHT22;849;48.780;9.216;2022-08-19T16:21:04;25.90;99.90
1704;DHT22;849;48.780;9.216;2022-08-19T16:23:34;26.60;99.90
1704;DHT22;849;48.780;9.216;2022-08-19T16:26:00;27.30;99.90
1704;DHT22;849;48.780;9.216;2022-08-19T16:28:26;27.80;99.90
1704;DHT22;849;48.780;9.216;2022-08-19T16:30:52;27.80;99.90